Time;durP1;ratioP1;P1;durP2;ratioP2;P2;SDS_P1;SDS_P2;PMS_P1;PMS_P2;Temp;Humidity;BMP_temperature;BMP_pressure;BME280_temperature;BME280_humidity;BME280_pressure;Samples;Min_cycle;Max_cycle;Signal;HPM_P1;HPM_P2
2023/07/10 02:37:26;;;;;;;5.90;5.40;;;22.80;99.90;;;;;;4920574;29;20448;-91
2023/07/10 02:40:39;;;;;;;6.63;6.00;;;22.80;99.90;;;;;;4847533;29;20571;-91
2023/07/10 02:43:22;;;;;;;5.47;5.07;;;22.90;99.90;;;;;;4913334;29;20972;-92
2023/07/10 03:50:01;;;;;;;5.47;4.97;;;22.10;99.90;;;;;;4953437;28;20485;-91
2023/07/10 04:26:14;;;;;;;6.33;5.63;;;22.30;1.00;;;;;;4994674;28;20471;-90
2023/07/10 04:32:22;;;;;;;9.70;5.63;;;21.80;99.90;;;;;;5013361;28;20428;-90
2023/07/10 04:34:49;;;;;;;9.40;5.73;;;;;;;;;;5004987;28;20480;-92
2023/07/10 04:41:02;;;;;;;9.30;5.37;;;23.80;99.90;;;;;;5166626;23;20585;-90
2023/07/10 04:47:25;;;;;;;;;;;;;;;;;;;;;
2023/07/10 04:50:54;;;;;;;5.53;5.13;;;21.90;99.90;;;;;;5021341;28;20866;-89
2023/07/10 05:00:06;;;;;;;6.50;6.00;;;21.40;99.90;;;;;;5043378;23;20550;-89
2023/07/10 05:02:36;;;;;;;6.13;5.33;;;22.10;99.90;;;;;;5020540;28;20444;-89
2023/07/10 05:05:12;;;;;;;7.53;6.37;;;22.10;99.90;;;;;;5021430;28;20481;-89
2023/07/10 05:07:41;;;;;;;11.20;5.40;;;;;;;;;;5021177;28;20480;-90
2023/07/10 05:10:11;;;;;;;5.93;5.00;;;;;;;;;;5001352;28;20452;-90
2023/07/10 05:12:47;;;;;;;7.10;6.07;;;22.10;99.90;;;;;;5003365;28;20511;-89
2023/07/10 05:15:15;;;;;;;6.50;5.90;;;;;;;;;;5007564;28;20465;-90
2023/07/10 05:17:43;;;;;;;6.53;5.93;;;;;;;;;;5004341;28;20448;-88
2023/07/10 05:20:18;;;;;;;9.53;6.03;;;22.10;99.90;;;;;;5003187;28;20444;-89
2023/07/10 05:22:47;;;;;;;8.33;5.70;;;;;;;;;;5001444;28;20860;-88
2023/07/10 05:25:14;;;;;;;8.00;5.83;;;;;;;;;;5008561;28;20465;-89
2023/07/10 05:27:42;;;;;;;8.43;5.50;;;22.00;99.90;;;;;;5005509;28;20476;-88
2023/07/10 05:30:10;;;;;;;7.73;6.87;;;22.00;99.90;;;;;;5001514;28;20448;-89
2023/07/10 05:32:37;;;;;;;6.47;5.87;;;22.10;99.90;;;;;;5000353;28;21043;-90
2023/07/10 05:35:04;;;;;;;6.30;5.70;;;;;;;;;;5002027;28;20520;-88
2023/07/10 05:37:31;;;;;;;8.53;6.17;;;21.70;99.90;;;;;;5001242;28;20537;-89
2023/07/10 05:39:59;;;;;;;9.20;6.70;;;21.30;99.90;;;;;;5001083;28;20472;-89
2023/07/10 05:42:26;;;;;;;11.60;6.70;;;21.20;1.00;;;;;;5003129;28;20456;-88
2023/07/10 05:44:54;;;;;;;8.87;7.70;;;20.00;1.00;;;;;;5011238;28;20452;-88
2023/07/10 05:47:21;;;;;;;12.63;7.97;;;20.00;1.00;;;;;;5013538;28;20508;-88
2023/07/10 05:49:47;;;;;;;11.53;7.60;;;19.80;99.90;;;;;;5012797;28;20560;-88
2023/07/10 05:52:14;;;;;;;9.43;7.60;;;19.40;1.00;;;;;;5006287;28;20496;-88
2023/07/10 05:54:41;;;;;;;10.33;8.37;;;19.20;1.00;;;;;;5002834;28;20460;-88
2023/07/10 05:57:08;;;;;;;12.33;9.40;;;19.00;99.90;;;;;;5003717;28;20468;-88
2023/07/10 05:59:35;;;;;;;9.43;8.43;;;18.90;1.00;;;;;;5001053;28;20497;-89
2023/07/10 06:02:03;;;;;;;14.07;8.87;;;18.90;39.00;;;;;;4999363;28;20457;-90
2023/07/10 06:04:30;;;;;;;20.90;11.07;;;18.90;72.00;;;;;;5001562;28;20447;-92
2023/07/10 06:06:57;;;;;;;20.23;10.33;;;18.90;99.90;;;;;;5008664;28;20456;-89
2023/07/10 06:09:24;;;;;;;11.40;10.27;;;18.80;99.90;;;;;;5001354;28;20559;-89
2023/07/10 06:11:50;;;;;;;12.87;9.90;;;18.70;99.90;;;;;;5002034;28;20452;-89
2023/07/10 06:14:17;;;;;;;14.43;10.27;;;18.80;99.90;;;;;;4999988;28;20822;-89
2023/07/10 06:16:44;;;;;;;16.53;10.57;;;18.90;68.60;;;;;;5000339;28;20474;-89
2023/07/10 06:19:12;;;;;;;12.87;10.80;;;18.70;99.90;;;;;;5009104;28;20495;-88
2023/07/10 06:21:39;;;;;;;12.20;10.17;;;18.70;99.90;;;;;;5018598;28;20437;-86
2023/07/10 06:24:07;;;;;;;13.53;12.13;;;19.60;99.90;;;;;;5017593;28;20426;-88
2023/07/10 06:26:33;;;;;;;12.03;10.77;;;18.70;99.90;;;;;;5018281;28;20464;-88
2023/07/10 06:29:00;;;;;;;13.13;10.37;;;19.00;1.00;;;;;;5011667;28;20523;-88
2023/07/10 06:31:27;;;;;;;12.03;10.17;;;18.90;1.00;;;;;;5000190;28;20455;-88
2023/07/10 06:33:54;;;;;;;11.23;9.10;;;18.90;99.90;;;;;;5000483;28;20426;-89
2023/07/10 06:36:22;;;;;;;17.03;10.10;;;18.90;97.40;;;;;;5000546;28;20527;-88
2023/07/10 06:38:49;;;;;;;15.37;9.13;;;;;;;;;;5000469;28;20468;-89
2023/07/10 06:41:17;;;;;;;12.13;9.53;;;;;;;;;;5000786;28;20476;-89
2023/07/10 06:43:46;;;;;;;11.43;9.00;;;19.00;1.00;;;;;;5001003;28;20829;-89
2023/07/10 06:46:13;;;;;;;12.33;10.63;;;19.30;99.90;;;;;;5004349;28;20448;-89
2023/07/10 06:48:39;;;;;;;13.80;11.10;;;19.10;11.70;;;;;;5010969;28;20484;-88
2023/07/10 06:51:06;;;;;;;14.17;11.60;;;19.30;1.00;;;;;;5008527;28;20456;-88
2023/07/10 06:53:35;;;;;;;16.60;11.67;;;19.80;99.90;;;;;;5005796;28;20454;-89
2023/07/10 06:56:02;;;;;;;12.30;9.70;;;19.50;1.00;;;;;;5005375;28;20444;-89
2023/07/10 06:58:31;;;;;;;11.13;9.63;;;19.40;99.90;;;;;;5007790;28;20536;-89
2023/07/10 07:00:58;;;;;;;11.27;8.90;;;19.70;1.00;;;;;;5016712;28;20444;-89
2023/07/10 07:03:25;;;;;;;9.23;8.13;;;19.40;1.00;;;;;;5013959;28;20866;-89
2023/07/10 07:05:53;;;;;;;11.80;8.40;;;19.50;99.90;;;;;;5012865;28;20457;-88
2023/07/10 07:08:21;;;;;;;11.10;9.30;;;19.40;99.90;;;;;;5016251;28;20488;-89
2023/07/10 07:10:52;;;;;;;14.27;8.87;;;19.80;1.00;;;;;;5021370;28;20447;-90
2023/07/10 07:13:20;;;;;;;12.73;9.50;;;19.90;99.90;;;;;;5022403;28;20445;-92
2023/07/10 07:15:49;;;;;;;12.30;9.53;;;19.90;1.00;;;;;;5017906;28;20448;-89
2023/07/10 07:18:17;;;;;;;12.60;8.37;;;;;;;;;;5009189;28;20513;-89
2023/07/10 07:20:44;;;;;;;14.70;10.20;;;19.80;1.00;;;;;;5008239;28;20627;-89
2023/07/10 07:23:11;;;;;;;10.13;9.10;;;;;;;;;;5009052;28;20452;-90
2023/07/10 07:25:38;;;;;;;12.60;9.37;;;;;;;;;;5007858;28;20456;-87
2023/07/10 07:28:07;;;;;;;12.57;9.33;;;20.00;1.00;;;;;;5010515;28;20465;-90
2023/07/10 07:30:34;;;;;;;9.10;8.17;;;;;;;;;;5014281;28;20949;-88
2023/07/10 07:33:02;;;;;;;9.60;7.93;;;;;;;;;;5005237;28;20475;-89
2023/07/10 07:35:29;;;;;;;14.30;10.57;;;;;;;;;;5005631;28;20453;-89
2023/07/10 07:37:56;;;;;;;10.97;9.33;;;20.30;1.00;;;;;;5005648;28;20464;-89
2023/07/10 07:40:23;;;;;;;10.60;8.30;;;;;;;;;;5003754;28;20551;-89
2023/07/10 07:42:51;;;;;;;8.93;8.10;;;20.30;99.90;;;;;;5002537;28;20439;-89
2023/07/10 07:45:19;;;;;;;13.17;9.90;;;20.50;99.90;;;;;;5004195;28;20449;-89
2023/07/10 07:47:46;;;;;;;16.43;8.73;;;20.60;1.00;;;;;;5012895;28;20512;-90
2023/07/10 07:50:14;;;;;;;10.37;8.10;;;20.90;1.00;;;;;;5021550;28;20493;-92
2023/07/10 07:52:42;;;;;;;8.70;7.90;;;;;;;;;;5020157;28;20435;-90
2023/07/10 07:55:10;;;;;;;9.23;8.43;;;21.00;99.90;;;;;;5019094;28;20440;-90
2023/07/10 07:57:41;;;;;;;9.30;8.40;;;21.30;1.00;;;;;;5017009;28;20468;-89
2023/07/10 08:00:09;;;;;;;9.77;8.10;;;21.20;1.00;;;;;;5011595;28;20485;-88
2023/07/10 08:02:38;;;;;;;9.73;8.73;;;21.50;1.00;;;;;;5007248;28;20881;-89
2023/07/10 08:05:06;;;;;;;10.63;9.40;;;22.30;1.00;;;;;;5007989;28;20448;-89
2023/07/10 08:07:33;;;;;;;8.70;7.80;;;21.60;1.00;;;;;;5008568;28;20439;-90
2023/07/10 08:10:01;;;;;;;8.77;7.97;;;;;;;;;;5015443;28;20484;-90
2023/07/10 08:12:30;;;;;;;8.93;8.17;;;;;;;;;;5009378;28;20444;-90
2023/07/10 08:14:57;;;;;;;9.37;8.47;;;22.10;1.00;;;;;;5003071;28;20451;-90
2023/07/10 08:18:10;;;;;;;11.50;9.90;;;22.30;1.00;;;;;;5005519;28;20475;-90
2023/07/10 08:20:39;;;;;;;9.30;8.50;;;22.50;1.00;;;;;;4995243;28;20816;-88
2023/07/10 08:23:09;;;;;;;11.00;8.27;;;;;;;;;;5001637;28;20441;-89
2023/07/10 08:25:36;;;;;;;10.57;9.43;;;;;;;;;;5003572;28;20492;-90
2023/07/10 08:28:04;;;;;;;10.80;8.83;;;;;;;;;;5006159;28;20507;-89
2023/07/10 08:30:31;;;;;;;11.63;8.97;;;;;;;;;;5012874;28;20539;-90
2023/07/10 08:32:58;;;;;;;10.00;9.00;;;;;;;;;;5020081;28;20441;-92
2023/07/10 08:35:26;;;;;;;12.43;9.07;;;;;;;;;;5020143;28;20464;-89
2023/07/10 08:37:55;;;;;;;11.63;8.07;;;23.50;1.00;;;;;;5019045;28;20452;-91
2023/07/10 08:40:29;;;;;;;14.47;9.33;;;23.80;1.00;;;;;;5016482;28;20484;-89
2023/07/10 08:42:57;;;;;;;8.43;7.63;;;;;;;;;;5005833;28;20424;-90
2023/07/10 08:45:34;;;;;;;9.83;8.83;;;23.90;1.00;;;;;;5003139;28;20460;-88
2023/07/10 08:48:17;;;;;;;11.60;10.60;;;24.30;1.00;;;;;;5001540;28;20555;-88
2023/07/10 08:50:44;;;;;;;9.83;8.83;;;;;;;;;;5007679;28;20510;-89
2023/07/10 08:53:16;;;;;;;9.63;8.83;;;24.30;1.00;;;;;;5002004;28;20499;-88
2023/07/10 08:55:52;;;;;;;9.57;8.67;;;24.40;1.00;;;;;;5003769;28;20433;-88
2023/07/10 08:58:23;;;;;;;10.53;9.47;;;24.70;1.00;;;;;;5006708;28;20476;-87
2023/07/10 09:00:54;;;;;;;11.13;10.13;;;24.70;1.00;;;;;;5008630;28;20439;-87
2023/07/10 09:03:36;;;;;;;10.87;9.77;;;24.80;1.00;;;;;;5010198;28;20437;-88
2023/07/10 09:06:04;;;;;;;9.60;8.70;;;25.00;1.00;;;;;;5011041;28;20508;-87
2023/07/10 09:08:35;;;;;;;13.53;10.73;;;24.80;1.00;;;;;;5008008;28;20500;-88
2023/07/10 09:11:04;;;;;;;10.93;9.97;;;25.00;99.90;;;;;;5008766;28;20917;-88
2023/07/10 09:13:39;;;;;;;14.27;9.33;;;25.40;1.00;;;;;;5009541;28;20459;-88
2023/07/10 09:16:14;;;;;;;10.87;9.97;;;25.50;1.00;;;;;;5010726;28;20464;-89
2023/07/10 09:18:49;;;;;;;11.57;10.57;;;25.70;99.90;;;;;;5008282;28;20474;-89
2023/07/10 09:21:18;;;;;;;11.23;10.10;;;25.60;1.00;;;;;;5014628;28;20470;-88
2023/07/10 09:23:48;;;;;;;10.20;9.30;;;25.60;1.00;;;;;;5011697;28;20511;-88
2023/07/10 09:26:17;;;;;;;10.37;9.37;;;25.70;1.00;;;;;;5010577;28;20429;-88
2023/07/10 09:28:50;;;;;;;10.73;9.73;;;25.80;1.00;;;;;;5014730;28;20472;-87
2023/07/10 09:31:27;;;;;;;11.40;9.70;;;25.80;1.00;;;;;;5013883;28;20424;-88
2023/07/10 09:34:00;;;;;;;10.60;9.57;;;26.00;1.00;;;;;;5012199;28;20527;-88
2023/07/10 09:36:28;;;;;;;9.70;8.80;;;26.10;1.00;;;;;;5005145;28;20939;-90
2023/07/10 09:38:57;;;;;;;10.97;9.77;;;26.20;1.00;;;;;;5006321;28;20542;-88
2023/07/10 09:41:26;;;;;;;9.90;9.13;;;26.30;1.00;;;;;;5001350;28;20544;-87
2023/07/10 09:43:56;;;;;;;12.33;11.13;;;26.30;1.00;;;;;;5000104;28;20456;-88
2023/07/10 09:46:25;;;;;;;10.40;9.40;;;26.40;1.00;;;;;;5002689;28;20444;-88
2023/07/10 09:48:54;;;;;;;9.73;8.93;;;26.50;1.00;;;;;;5009133;28;20555;-89
2023/07/10 09:51:20;;;;;;;10.07;9.27;;;26.60;1.00;;;;;;5006639;28;20889;-88
2023/07/10 09:53:52;;;;;;;10.53;9.57;;;26.60;1.00;;;;;;5010531;28;20461;-89
2023/07/10 09:56:26;;;;;;;9.47;8.43;;;26.70;1.00;;;;;;5005926;28;20429;-87
2023/07/10 09:58:54;;;;;;;10.50;9.47;;;26.80;1.00;;;;;;5004808;28;20464;-87
2023/07/10 10:01:25;;;;;;;10.90;9.90;;;26.80;1.00;;;;;;5008291;28;20449;-88
2023/07/10 10:03:54;;;;;;;10.40;8.93;;;26.70;1.00;;;;;;5003571;28;20945;-89
2023/07/10 10:06:23;;;;;;;10.20;9.30;;;26.70;1.00;;;;;;5004005;28;20556;-87
2023/07/10 10:08:51;;;;;;;10.57;9.70;;;26.70;1.00;;;;;;5015291;28;20496;-86
2023/07/10 10:11:18;;;;;;;11.07;9.97;;;26.70;1.00;;;;;;5019145;28;20471;-87
2023/07/10 10:13:56;;;;;;;10.63;9.57;;;26.80;1.00;;;;;;5014025;28;20448;-89
2023/07/10 10:16:31;;;;;;;9.13;8.43;;;26.90;1.00;;;;;;5004485;28;20476;-90
2023/07/10 10:19:03;;;;;;;10.77;9.80;;;26.90;1.00;;;;;;5005063;28;20476;-90
2023/07/10 10:21:33;;;;;;;10.17;9.00;;;27.00;1.00;;;;;;5001923;28;20437;-89
2023/07/10 10:24:05;;;;;;;9.93;9.00;;;27.40;1.00;;;;;;5000590;28;20444;-88
2023/07/10 10:26:43;;;;;;;10.40;9.50;;;27.10;1.00;;;;;;5006231;28;20445;-89
2023/07/10 10:29:36;;;;;;;10.90;9.10;;;27.00;1.00;;;;;;5016023;28;20468;-88
2023/07/10 10:32:13;;;;;;;10.17;9.27;;;27.10;1.00;;;;;;5003744;28;20452;-88
2023/07/10 10:34:47;;;;;;;10.67;9.77;;;27.10;1.00;;;;;;5016386;28;20488;-88
2023/07/10 10:37:30;;;;;;;9.83;8.97;;;25.50;1.00;;;;;;5014140;28;20448;-90
2023/07/10 10:39:59;;;;;;;9.90;8.93;;;27.20;1.00;;;;;;4999106;28;20525;-89
2023/07/10 10:42:33;;;;;;;10.67;9.57;;;27.40;1.00;;;;;;5001774;28;20475;-88
2023/07/10 10:45:14;;;;;;;9.87;8.27;;;27.40;1.00;;;;;;5015752;28;20421;-86
2023/07/10 10:47:51;;;;;;;20.33;8.87;;;28.90;1.00;;;;;;5007459;28;20457;-89
2023/07/10 10:50:33;;;;;;;10.03;9.03;;;27.50;1.00;;;;;;5002438;28;20496;-88
2023/07/10 10:53:16;;;;;;;11.83;10.20;;;27.60;1.00;;;;;;5004717;28;20461;-86
2023/07/10 10:55:53;;;;;;;10.27;8.77;;;27.70;1.00;;;;;;5011082;28;20436;-89
2023/07/10 11:36:55;;;;;;;10.73;9.83;;;28.30;1.00;;;;;;5019256;28;20483;-92
2023/07/10 11:39:58;;;;;;;10.40;9.40;;;28.30;99.90;;;;;;5024613;28;20493;-92
2023/07/10 11:42:25;;;;;;;11.40;10.30;;;28.50;1.00;;;;;;5053695;23;20506;-88
2023/07/10 11:45:00;;;;;;;10.63;9.73;;;28.20;1.00;;;;;;5037406;28;20523;-88
2023/07/10 11:47:30;;;;;;;10.97;9.97;;;28.20;1.00;;;;;;5021206;28;20942;-89
2023/07/10 11:50:25;;;;;;;12.13;11.03;;;28.20;1.00;;;;;;5021283;28;20518;-88
2023/07/10 11:53:07;;;;;;;12.00;10.80;;;28.20;99.90;;;;;;5007160;28;20467;-87
2023/07/10 11:55:43;;;;;;;13.80;12.60;;;28.20;99.90;;;;;;5020938;28;20466;-89
2023/07/10 11:58:24;;;;;;;14.73;13.43;;;28.20;1.00;;;;;;5022306;28;20469;-88
2023/07/10 12:00:58;;;;;;;13.30;12.07;;;28.30;99.90;;;;;;5021690;28;20455;-89
2023/07/10 12:03:25;;;;;;;13.07;11.97;;;28.40;99.90;;;;;;5033375;28;20477;-89
2023/07/10 12:05:52;;;;;;;12.60;11.60;;;28.30;1.00;;;;;;5032946;28;20482;-88
2023/07/10 12:08:19;;;;;;;12.40;11.13;;;28.30;99.90;;;;;;5026866;28;20450;-88
2023/07/10 12:10:50;;;;;;;11.00;10.10;;;28.40;99.90;;;;;;5021125;28;20542;-88
2023/07/10 12:13:22;;;;;;;10.07;9.27;;;28.30;99.90;;;;;;5021519;28;20581;-88
2023/07/10 12:15:53;;;;;;;10.53;9.70;;;28.30;99.90;;;;;;5021553;28;20534;-88
2023/07/10 12:18:23;;;;;;;10.73;9.73;;;28.30;99.90;;;;;;5027555;28;20455;-89
2023/07/10 12:20:51;;;;;;;11.97;10.70;;;28.20;99.90;;;;;;5020209;28;20526;-88
2023/07/10 12:23:19;;;;;;;9.50;8.80;;;28.10;99.90;;;;;;5021187;28;20510;-91
2023/07/10 12:25:51;;;;;;;11.17;9.97;;;28.00;99.90;;;;;;5020652;28;20510;-88
2023/07/10 12:28:21;;;;;;;10.37;9.20;;;28.00;99.90;;;;;;5019792;28;20538;-89
2023/07/10 12:30:50;;;;;;;11.80;10.80;;;28.10;99.90;;;;;;5019570;28;20566;-88
2023/07/10 12:33:37;;;;;;;12.63;10.00;;;28.10;99.90;;;;;;5021104;28;20527;-88
2023/07/10 12:36:11;;;;;;;12.47;11.47;;;28.20;99.90;;;;;;5021213;28;20432;-89
2023/07/10 12:38:38;;;;;;;12.40;10.80;;;28.00;1.00;;;;;;5020645;28;20908;-89
2023/07/10 12:41:05;;;;;;;12.20;11.03;;;28.50;99.90;;;;;;5022382;28;20510;-88
2023/07/10 12:43:32;;;;;;;11.47;10.47;;;28.20;99.90;;;;;;5032097;28;20479;-89
2023/07/10 12:46:00;;;;;;;12.80;11.37;;;28.10;1.00;;;;;;5020971;28;20478;-89
2023/07/10 12:48:32;;;;;;;12.37;11.17;;;28.00;99.90;;;;;;5021314;28;20515;-89
2023/07/10 12:51:02;;;;;;;13.20;12.20;;;28.00;99.90;;;;;;5021252;28;20476;-89
2023/07/10 12:53:33;;;;;;;13.67;12.23;;;27.90;99.90;;;;;;5022412;28;20502;-89
2023/07/10 12:56:07;;;;;;;12.37;11.20;;;27.70;99.90;;;;;;5030571;28;20435;-89
2023/07/10 12:58:34;;;;;;;12.53;11.27;;;27.60;99.90;;;;;;5032880;28;20424;-87
2023/07/10 13:01:12;;;;;;;11.70;10.67;;;27.50;1.00;;;;;;5020193;28;20482;-88
2023/07/10 13:03:40;;;;;;;12.03;10.80;;;27.60;1.00;;;;;;5027278;28;20471;-89
2023/07/10 13:06:08;;;;;;;12.40;11.20;;;27.70;1.00;;;;;;5038325;28;20447;-89
2023/07/10 13:08:39;;;;;;;11.60;10.50;;;27.60;1.00;;;;;;5036696;28;20556;-89
2023/07/10 13:11:07;;;;;;;11.70;10.60;;;27.10;1.00;;;;;;5030950;28;20478;-88
2023/07/10 13:13:39;;;;;;;11.80;10.40;;;27.40;1.00;;;;;;5029564;28;20498;-87
2023/07/10 13:16:18;;;;;;;10.93;10.03;;;27.40;1.00;;;;;;5022903;28;20495;-88
2023/07/10 13:18:46;;;;;;;10.10;9.20;;;27.30;1.00;;;;;;5021828;28;20435;-87
2023/07/10 13:21:15;;;;;;;10.80;9.90;;;27.20;1.00;;;;;;5021524;28;20538;-88
2023/07/10 13:23:43;;;;;;;11.07;9.87;;;;;;;;;;5022015;28;20499;-87
2023/07/10 13:26:22;;;;;;;11.63;10.63;;;27.30;9.80;;;;;;5029815;28;20535;-89
2023/07/10 13:28:51;;;;;;;14.03;10.43;;;26.80;1.00;;;;;;5026713;28;20443;-89
2023/07/10 13:31:22;;;;;;;12.10;10.33;;;26.70;1.00;;;;;;5034252;28;20510;-89
2023/07/10 13:33:53;;;;;;;11.23;10.33;;;26.70;1.00;;;;;;5037357;28;20460;-88
2023/07/10 13:36:22;;;;;;;12.00;10.97;;;26.60;1.00;;;;;;5036085;28;20451;-87
2023/07/10 13:38:49;;;;;;;13.67;10.20;;;26.50;1.00;;;;;;5033080;28;20443;-89
2023/07/10 13:41:17;;;;;;;11.70;10.60;;;26.10;12.90;;;;;;5025363;28;20506;-88
2023/07/10 13:43:44;;;;;;;13.00;12.00;;;26.30;1.00;;;;;;5024909;28;20510;-87
2023/07/10 13:46:20;;;;;;;12.60;11.00;;;26.30;1.00;;;;;;5026917;28;20447;-89
2023/07/10 13:48:47;;;;;;;12.87;11.57;;;;;;;;;;5025414;28;20450;-89
2023/07/10 13:51:16;;;;;;;13.87;12.57;;;26.20;1.00;;;;;;5024136;28;20518;-87
2023/07/10 13:53:43;;;;;;;13.83;12.60;;;26.20;1.00;;;;;;5021715;28;20526;-89
2023/07/10 13:56:15;;;;;;;13.97;12.50;;;26.30;1.00;;;;;;5023261;28;20436;-88
2023/07/10 13:58:43;;;;;;;11.70;10.70;;;26.30;1.00;;;;;;5024594;28;20454;-88
2023/07/10 14:01:12;;;;;;;12.73;11.40;;;26.50;1.00;;;;;;5019129;28;20475;-88
2023/07/10 14:03:39;;;;;;;11.60;10.40;;;26.50;1.00;;;;;;5018989;28;20471;-88
2023/07/10 14:06:29;;;;;;;13.43;11.67;;;26.50;1.00;;;;;;5023918;28;20451;-87
2023/07/10 14:08:58;;;;;;;13.80;11.57;;;26.40;1.00;;;;;;5022170;28;20523;-88
2023/07/10 14:11:26;;;;;;;13.93;12.07;;;26.40;1.00;;;;;;5021590;28;20534;-88
2023/07/10 14:13:53;;;;;;;13.50;12.10;;;26.30;1.00;;;;;;5019427;28;20495;-88
2023/07/10 14:16:23;;;;;;;12.23;11.13;;;26.40;1.00;;;;;;5019334;28;20439;-88
2023/07/10 14:18:50;;;;;;;12.80;10.70;;;26.50;1.00;;;;;;5019621;28;20538;-88
2023/07/10 14:21:17;;;;;;;14.50;11.23;;;26.50;1.00;;;;;;5019966;28;20554;-88
2023/07/10 14:23:46;;;;;;;11.70;10.60;;;26.40;1.00;;;;;;5018407;28;20479;-89
2023/07/10 14:26:19;;;;;;;11.83;10.60;;;26.30;1.00;;;;;;5025901;28;20474;-89
2023/07/10 14:28:47;;;;;;;10.83;9.93;;;;;;;;;;5026981;28;20455;-90
2023/07/10 14:31:14;;;;;;;12.60;10.17;;;26.20;1.00;;;;;;5025825;28;20483;-89
2023/07/10 14:33:43;;;;;;;12.00;11.00;;;26.10;1.00;;;;;;5025631;28;20566;-91
2023/07/10 14:36:15;;;;;;;11.07;9.97;;;25.80;1.00;;;;;;5032957;28;20447;-91
2023/07/10 14:38:43;;;;;;;11.20;9.97;;;26.00;1.00;;;;;;5038428;28;20439;-90
2023/07/10 14:41:14;;;;;;;10.27;9.03;;;26.10;1.00;;;;;;5037430;28;20443;-88
2023/07/10 14:43:43;;;;;;;9.10;8.30;;;26.30;1.00;;;;;;5026862;28;20475;-89
2023/07/10 14:46:15;;;;;;;10.47;8.90;;;26.30;1.00;;;;;;5024507;28;20506;-89
2023/07/10 14:48:43;;;;;;;9.40;7.77;;;26.40;1.00;;;;;;5025267;28;20503;-89
2023/07/10 14:51:11;;;;;;;9.10;8.27;;;26.90;23.50;;;;;;5025014;28;20900;-89
2023/07/10 14:53:38;;;;;;;9.77;8.77;;;26.50;1.00;;;;;;5025450;28;20512;-88
2023/07/10 14:56:14;;;;;;;10.53;9.30;;;26.50;1.00;;;;;;5026780;28;20463;-89
2023/07/10 14:58:43;;;;;;;8.27;7.57;;;26.50;1.00;;;;;;5032141;28;20454;-89
2023/07/10 15:01:16;;;;;;;8.00;7.30;;;26.60;1.00;;;;;;5023854;28;20440;-89
2023/07/10 15:03:44;;;;;;;7.53;6.83;;;26.60;1.00;;;;;;5026486;28;20470;-87
2023/07/10 15:06:25;;;;;;;6.20;5.60;;;26.70;1.00;;;;;;5028530;28;20871;-90
2023/07/10 15:08:52;;;;;;;6.73;5.73;;;26.70;1.00;;;;;;5038694;28;20542;-89
2023/07/10 15:11:23;;;;;;;6.70;5.97;;;26.70;1.00;;;;;;5040935;28;20471;-90
2023/07/10 15:13:50;;;;;;;5.67;5.17;;;26.80;1.00;;;;;;5041574;28;20460;-89
2023/07/10 15:16:21;;;;;;;6.33;5.73;;;26.90;1.00;;;;;;5040334;28;20486;-89
2023/07/10 15:18:49;;;;;;;6.33;5.83;;;;;;;;;;5036704;28;20439;-90
2023/07/10 15:21:21;;;;;;;5.77;5.23;;;26.70;1.00;;;;;;5039018;28;20451;-88
2023/07/10 15:23:48;;;;;;;5.83;5.33;;;26.70;1.00;;;;;;5037323;28;20482;-89
2023/07/10 15:26:15;;;;;;;5.50;5.00;;;26.50;1.00;;;;;;5034057;28;20448;-87
2023/07/10 15:28:44;;;;;;;5.27;4.90;;;26.60;1.00;;;;;;5033431;28;20455;-89
2023/07/10 15:31:13;;;;;;;7.63;6.97;;;26.10;1.00;;;;;;5027799;28;20511;-88
2023/07/10 15:33:43;;;;;;;5.80;5.30;;;26.20;1.00;;;;;;5028288;28;20471;-88
2023/07/10 15:36:17;;;;;;;6.40;5.70;;;26.20;1.00;;;;;;5023866;28;20447;-88
2023/07/10 15:38:50;;;;;;;6.27;5.77;;;26.10;1.00;;;;;;5032518;28;20479;-90
2023/07/10 15:41:24;;;;;;;6.53;5.97;;;24.70;1.00;;;;;;5029064;28;20444;-88
2023/07/10 15:43:53;;;;;;;6.60;6.10;;;26.60;1.00;;;;;;5032478;28;20518;-89
2023/07/10 15:46:20;;;;;;;6.23;5.83;;;26.60;1.00;;;;;;5030658;28;20452;-88
2023/07/10 15:48:47;;;;;;;6.13;5.63;;;26.70;1.00;;;;;;5039304;28;20439;-89
2023/07/10 15:51:22;;;;;;;5.43;4.97;;;26.70;1.00;;;;;;5030843;28;20637;-89
2023/07/10 15:53:50;;;;;;;6.10;5.50;;;;;;;;;;5022244;28;20463;-88
2023/07/10 15:56:17;;;;;;;6.50;5.90;;;26.50;1.00;;;;;;5022595;28;20431;-88
2023/07/10 15:58:44;;;;;;;5.97;5.43;;;;;;;;;;5024281;28;20478;-89
2023/07/10 16:01:18;;;;;;;5.87;5.43;;;25.20;1.00;;;;;;5037199;28;20528;-88
2023/07/10 16:03:45;;;;;;;6.80;6.20;;;;;;;;;;5033807;28;20467;-87
2023/07/10 16:06:12;;;;;;;6.10;5.50;;;;;;;;;;5026582;28;20455;-90
2023/07/10 16:08:39;;;;;;;6.40;5.80;;;26.20;1.00;;;;;;5029696;28;20881;-89
2023/07/10 16:11:16;;;;;;;6.23;5.63;;;26.20;1.00;;;;;;5028026;28;20851;-89
2023/07/10 16:13:44;;;;;;;6.07;5.37;;;;;;;;;;5028715;28;20447;-89
2023/07/10 16:16:12;;;;;;;6.00;4.80;;;;;;;;;;5031564;28;20491;-89
2023/07/10 16:18:40;;;;;;;5.50;5.00;;;26.20;1.00;;;;;;5038872;28;20475;-88
2023/07/10 16:21:14;;;;;;;5.97;5.57;;;26.20;1.00;;;;;;5031445;28;20530;-89
2023/07/10 16:23:42;;;;;;;6.10;5.57;;;;;;;;;;5029930;28;20565;-89
2023/07/10 16:26:10;;;;;;;8.33;5.37;;;;;;;;;;5028562;28;20528;-89
2023/07/10 16:28:38;;;;;;;5.67;5.27;;;;;;;;;;5026060;28;21010;-90
2023/07/10 16:31:05;;;;;;;6.43;5.80;;;;;;;;;;5027529;28;20478;-89
2023/07/10 16:33:33;;;;;;;7.23;5.70;;;25.80;1.00;;;;;;5027626;28;20467;-89
2023/07/10 16:36:02;;;;;;;5.60;4.63;;;25.90;1.00;;;;;;5026335;28;20454;-88
2023/07/10 16:38:29;;;;;;;6.00;5.50;;;;;;;;;;5024948;28;20983;-89
2023/07/10 16:40:58;;;;;;;6.57;5.30;;;25.80;1.00;;;;;;5025265;28;20447;-89
2023/07/10 16:43:32;;;;;;;4.93;4.53;;;25.70;1.00;;;;;;5028613;28;20472;-89
2023/07/10 16:45:59;;;;;;;5.30;4.80;;;;;;;;;;5025854;28;20448;-89
2023/07/10 16:48:29;;;;;;;5.53;5.07;;;25.80;1.00;;;;;;5030492;28;20438;-89
2023/07/10 16:50:58;;;;;;;5.80;5.30;;;25.80;1.00;;;;;;5035272;28;20451;-89
2023/07/10 16:53:30;;;;;;;7.37;4.90;;;25.70;1.00;;;;;;5037311;28;20472;-90
2023/07/10 16:55:59;;;;;;;5.47;4.50;;;25.90;1.00;;;;;;5037447;28;20439;-89
2023/07/10 16:58:29;;;;;;;5.87;5.33;;;25.70;1.00;;;;;;5029935;28;20470;-89
2023/07/10 17:00:57;;;;;;;5.87;5.37;;;25.70;1.00;;;;;;5024163;28;20955;-89
2023/07/10 17:03:26;;;;;;;4.83;4.40;;;25.70;1.00;;;;;;5004933;28;20482;-88
2023/07/10 17:05:54;;;;;;;4.83;4.43;;;25.60;1.00;;;;;;5032440;28;20451;-89
2023/07/10 17:08:23;;;;;;;9.80;5.17;;;25.80;1.00;;;;;;5023349;28;20530;-89
2023/07/10 17:10:53;;;;;;;4.10;3.80;;;25.70;1.00;;;;;;5021097;28;20511;-89
2023/07/10 17:13:23;;;;;;;5.10;3.70;;;25.70;1.00;;;;;;5020097;28;20486;-89
2023/07/10 17:15:52;;;;;;;4.40;4.00;;;25.60;99.90;;;;;;5027308;28;20508;-90
2023/07/10 17:18:21;;;;;;;4.80;3.80;;;25.50;99.90;;;;;;5022292;28;20458;-88
2023/07/10 17:20:51;;;;;;;5.00;4.60;;;25.40;1.00;;;;;;5037429;28;20480;-88
2023/07/10 17:23:19;;;;;;;4.37;3.97;;;25.20;1.00;;;;;;5032126;28;20472;-88
2023/07/10 17:25:48;;;;;;;4.10;3.60;;;25.40;99.90;;;;;;5022988;28;20452;-90
2023/07/10 17:28:18;;;;;;;4.40;4.00;;;25.40;99.90;;;;;;5022435;28;20450;-90
2023/07/10 17:30:46;;;;;;;5.13;3.70;;;25.40;99.90;;;;;;5022333;28;20467;-87
2023/07/10 17:33:34;;;;;;;3.80;3.50;;;25.30;99.90;;;;;;5020014;28;20483;-88
2023/07/10 17:36:02;;;;;;;3.67;3.37;;;25.30;99.90;;;;;;5022277;28;20523;-89
2023/07/10 17:38:31;;;;;;;5.20;3.50;;;25.20;99.90;;;;;;5021580;28;20443;-88
2023/07/10 17:40:58;;;;;;;4.30;4.00;;;25.20;99.90;;;;;;5025225;28;20579;-88
2023/07/10 17:43:30;;;;;;;3.80;3.50;;;25.30;99.90;;;;;;5031479;28;20925;-87
2023/07/10 17:45:58;;;;;;;4.00;3.40;;;25.30;99.90;;;;;;5025138;28;20528;-89
2023/07/10 17:48:25;;;;;;;4.43;4.03;;;25.20;99.90;;;;;;5025265;28;20490;-89
2023/07/10 17:50:54;;;;;;;7.30;5.13;;;25.20;99.90;;;;;;5022234;28;20455;-88
2023/07/10 17:53:22;;;;;;;4.03;3.63;;;25.20;99.90;;;;;;5030383;28;20494;-89
2023/07/10 17:55:50;;;;;;;5.07;4.50;;;25.10;99.90;;;;;;5037753;28;20459;-87
2023/07/10 17:58:20;;;;;;;7.07;3.97;;;25.10;99.90;;;;;;5036094;28;20458;-89
2023/07/10 18:00:51;;;;;;;5.83;4.27;;;25.00;99.90;;;;;;5035974;28;20447;-90
2023/07/10 18:03:21;;;;;;;6.00;4.00;;;25.00;99.90;;;;;;5037574;28;20491;-88
2023/07/10 18:05:49;;;;;;;12.23;4.33;;;25.00;99.90;;;;;;5030047;28;20443;-89
2023/07/10 18:08:18;;;;;;;4.17;3.30;;;25.00;1.00;;;;;;5020933;28;20519;-89
2023/07/10 18:10:46;;;;;;;10.83;4.20;;;25.00;99.90;;;;;;5028508;28;20519;-88
2023/07/10 18:13:18;;;;;;;3.37;3.10;;;25.00;99.90;;;;;;5036367;28;20583;-88
2023/07/10 18:15:46;;;;;;;4.77;3.27;;;25.10;99.90;;;;;;5036137;28;20428;-87
2023/07/10 18:18:14;;;;;;;3.60;3.10;;;25.10;1.00;;;;;;5037699;28;20492;-88
2023/07/10 18:20:41;;;;;;;5.00;4.00;;;25.10;99.90;;;;;;5036079;28;20443;-88
2023/07/10 18:23:22;;;;;;;5.30;3.93;;;25.20;99.90;;;;;;5029149;28;20817;-88
2023/07/10 18:25:51;;;;;;;3.97;3.57;;;25.10;99.90;;;;;;5027936;28;20405;-86
2023/07/10 18:28:25;;;;;;;4.70;3.20;;;25.00;99.90;;;;;;5031219;28;20448;-88